Time;durP1;ratioP1;P1;durP2;ratioP2;P2;SDS_P1;SDS_P2;PMS_P1;PMS_P2;Temp;Humidity;BMP_temperature;BMP_pressure;BME280_temperature;BME280_humidity;BME280_pressure;Samples;Min_cycle;Max_cycle;Signal;HPM_P1;HPM_P2
2021/06/30 05:38:19;;;;;;;12.90;6.80;;;15.70;95.00;;;;;;5087451;27;20382;-82
2021/06/30 05:40:45;;;;;;;10.38;5.90;;;15.70;93.90;;;;;;5087981;28;20870;-85
2021/06/30 05:43:11;;;;;;;8.70;5.73;;;15.80;93.50;;;;;;5086649;28;20964;-84
2021/06/30 05:45:36;;;;;;;9.33;6.20;;;15.90;93.40;;;;;;5088089;28;20422;-85
2021/06/30 05:48:02;;;;;;;8.35;5.80;;;16.10;93.10;;;;;;5086128;28;20724;-85
2021/06/30 05:50:27;;;;;;;7.30;4.93;;;16.10;93.30;;;;;;5086507;28;20418;-84
2021/06/30 05:52:53;;;;;;;8.40;4.87;;;16.10;93.00;;;;;;5085843;28;20383;-82
2021/06/30 05:55:19;;;;;;;7.40;4.50;;;16.10;92.40;;;;;;5086022;28;20474;-83
2021/06/30 05:57:44;;;;;;;8.38;4.53;;;16.10;92.90;;;;;;5087077;28;20438;-82
2021/06/30 06:00:19;;;;;;;7.20;4.07;;;16.20;92.90;;;;;;5083754;28;20422;-82
2021/06/30 06:02:48;;;;;;;10.00;5.00;;;16.10;92.70;;;;;;5084420;28;20485;-85
2021/06/30 06:05:14;;;;;;;9.25;4.70;;;16.00;92.30;;;;;;5084496;28;20379;-86
2021/06/30 06:07:40;;;;;;;5.65;3.80;;;16.20;92.80;;;;;;5086135;28;20379;-85
2021/06/30 06:10:08;;;;;;;7.63;4.00;;;16.30;92.90;;;;;;5086095;28;20373;-85
2021/06/30 06:12:34;;;;;;;9.55;3.80;;;16.30;93.10;;;;;;5086445;28;20367;-85
2021/06/30 06:15:00;;;;;;;5.70;3.50;;;16.30;93.20;;;;;;5085996;28;20367;-84
2021/06/30 06:17:25;;;;;;;6.38;3.20;;;16.20;93.00;;;;;;5086328;28;20506;-84
2021/06/30 06:19:51;;;;;;;7.00;3.03;;;16.30;93.60;;;;;;5084395;28;20391;-86
2021/06/30 06:22:17;;;;;;;5.05;2.92;;;16.40;93.10;;;;;;5084960;28;20464;-84
2021/06/30 06:24:42;;;;;;;4.07;2.50;;;16.40;93.10;;;;;;5084869;28;20723;-84
2021/06/30 06:27:08;;;;;;;6.53;3.07;;;16.30;92.30;;;;;;5086038;28;20866;-81
2021/06/30 06:29:37;;;;;;;5.93;2.50;;;16.10;92.50;;;;;;5085962;28;20414;-84
2021/06/30 06:32:03;;;;;;;5.85;2.95;;;16.20;93.10;;;;;;5084330;28;20395;-83
2021/06/30 06:34:29;;;;;;;4.43;2.87;;;16.40;93.10;;;;;;5086410;28;20460;-84
2021/06/30 06:36:55;;;;;;;3.63;2.60;;;16.30;91.70;;;;;;5083549;28;20407;-83
2021/06/30 06:39:21;;;;;;;3.67;2.60;;;16.40;92.70;;;;;;5084533;28;20379;-80
2021/06/30 06:41:47;;;;;;;4.10;2.80;;;16.30;91.30;;;;;;5085911;28;20407;-82
2021/06/30 06:44:13;;;;;;;5.00;2.70;;;16.30;92.40;;;;;;5085750;28;20707;-82
2021/06/30 06:46:40;;;;;;;8.23;3.40;;;16.30;93.10;;;;;;5084513;28;20383;-82
2021/06/30 06:49:09;;;;;;;7.15;4.15;;;16.30;93.30;;;;;;5075256;28;20372;-81
2021/06/30 06:51:39;;;;;;;4.55;3.22;;;16.30;93.30;;;;;;5072090;28;20835;-83
2021/06/30 06:54:06;;;;;;;6.97;3.25;;;16.40;92.90;;;;;;5072062;28;20505;-82
2021/06/30 06:56:32;;;;;;;5.38;3.20;;;16.50;92.50;;;;;;5072333;28;20403;-82
2021/06/30 06:58:58;;;;;;;6.00;3.53;;;16.30;92.50;;;;;;5071982;28;20455;-82
2021/06/30 07:01:24;;;;;;;5.03;3.20;;;16.30;92.30;;;;;;5072036;28;20371;-82
2021/06/30 07:03:51;;;;;;;4.03;2.80;;;16.40;92.80;;;;;;5071955;28;20380;-82
2021/06/30 07:06:17;;;;;;;4.90;4.05;;;16.50;92.50;;;;;;5072203;28;20459;-82
2021/06/30 07:08:43;;;;;;;17.10;4.90;;;16.40;92.90;;;;;;5070128;28;20380;-82
2021/06/30 07:11:09;;;;;;;5.63;3.63;;;16.40;92.20;;;;;;5070904;28;20396;-82
2021/06/30 07:13:38;;;;;;;7.33;3.83;;;16.40;92.90;;;;;;5072006;28;20395;-82
2021/06/30 07:16:06;;;;;;;6.43;3.70;;;16.30;93.10;;;;;;5070441;28;20917;-82
2021/06/30 07:18:33;;;;;;;5.00;3.70;;;16.40;93.20;;;;;;5071300;28;20392;-82
2021/06/30 07:21:00;;;;;;;5.27;3.83;;;16.40;92.60;;;;;;5068659;28;20416;-84
2021/06/30 07:23:26;;;;;;;5.00;4.00;;;16.30;92.90;;;;;;5069032;28;20372;-82
2021/06/30 07:25:52;;;;;;;6.80;4.20;;;16.30;92.50;;;;;;5070045;28;20922;-82
2021/06/30 07:28:17;;;;;;;9.98;3.92;;;16.50;92.40;;;;;;5070610;28;20410;-82
2021/06/30 07:30:43;;;;;;;6.47;4.20;;;16.70;92.50;;;;;;5069807;28;20407;-83
2021/06/30 07:33:09;;;;;;;5.50;4.30;;;16.80;93.00;;;;;;5071374;28;20377;-84
2021/06/30 07:35:34;;;;;;;6.45;4.60;;;16.80;91.40;;;;;;5070088;28;20449;-83
2021/06/30 07:38:00;;;;;;;6.75;4.70;;;16.70;91.40;;;;;;5089677;28;20723;-83
2021/06/30 07:40:26;;;;;;;7.15;5.18;;;16.70;92.10;;;;;;5091295;28;20374;-84
2021/06/30 07:42:51;;;;;;;6.47;4.97;;;16.80;92.40;;;;;;5091935;28;20901;-85
2021/06/30 07:45:17;;;;;;;7.73;5.20;;;16.80;91.50;;;;;;5072876;28;20386;-83
2021/06/30 07:47:43;;;;;;;5.75;4.53;;;16.90;91.90;;;;;;5091362;28;20439;-84
2021/06/30 07:50:09;;;;;;;8.38;5.07;;;16.90;91.50;;;;;;5090840;28;20424;-83
2021/06/30 07:52:35;;;;;;;6.45;5.13;;;16.80;91.60;;;;;;5091033;28;20469;-84
2021/06/30 07:55:00;;;;;;;5.82;4.70;;;17.00;91.90;;;;;;5091575;28;20429;-84
2021/06/30 07:57:26;;;;;;;6.77;5.33;;;17.00;91.10;;;;;;5089717;28;20410;-83
2021/06/30 07:59:51;;;;;;;6.10;5.03;;;17.10;91.50;;;;;;5089912;28;20461;-84
2021/06/30 08:02:17;;;;;;;7.07;5.05;;;17.20;90.00;;;;;;5090951;28;20409;-85
2021/06/30 08:04:42;;;;;;;5.20;4.70;;;17.30;91.20;;;;;;5091120;28;20810;-84
2021/06/30 08:07:08;;;;;;;4.55;4.00;;;17.40;90.30;;;;;;5072633;28;20482;-85
2021/06/30 08:09:35;;;;;;;6.53;4.10;;;17.30;89.70;;;;;;5090614;28;20846;-82
2021/06/30 08:12:03;;;;;;;5.80;3.95;;;17.40;90.10;;;;;;5091111;28;20381;-84
2021/06/30 08:14:29;;;;;;;6.70;4.70;;;17.40;89.30;;;;;;5072697;28;20703;-85
2021/06/30 08:16:55;;;;;;;7.82;4.03;;;17.40;90.40;;;;;;5072326;28;20450;-86
2021/06/30 08:19:21;;;;;;;4.68;4.22;;;17.50;90.30;;;;;;5072216;28;20722;-88
2021/06/30 08:21:46;;;;;;;4.22;3.83;;;17.40;90.30;;;;;;5072427;28;20511;-87
2021/06/30 08:24:12;;;;;;;6.63;4.30;;;17.30;89.90;;;;;;5090471;28;20471;-85
2021/06/30 08:26:38;;;;;;;5.90;3.97;;;17.10;90.80;;;;;;5090472;28;20480;-90
2021/06/30 08:29:03;;;;;;;8.00;4.30;;;17.00;90.10;;;;;;5090133;28;20854;-87
2021/06/30 08:31:29;;;;;;;4.35;3.92;;;17.10;91.10;;;;;;5090976;28;20545;-91
2021/06/30 08:33:55;;;;;;;4.33;3.73;;;17.30;90.40;;;;;;5090229;28;20382;-88
2021/06/30 08:36:21;;;;;;;5.67;4.10;;;17.30;89.60;;;;;;5090508;28;20728;-89
2021/06/30 08:38:47;;;;;;;4.13;3.72;;;17.30;89.40;;;;;;5089881;28;20382;-84
2021/06/30 08:41:12;;;;;;;5.47;3.70;;;17.50;89.80;;;;;;5090583;28;20718;-90
2021/06/30 08:43:38;;;;;;;6.68;4.18;;;17.60;88.90;;;;;;5090056;28;20389;-87
2021/06/30 08:46:06;;;;;;;5.67;3.33;;;17.80;89.70;;;;;;5072255;28;20379;-88
2021/06/30 08:48:33;;;;;;;5.70;3.40;;;18.00;88.50;;;;;;5089835;28;20378;-86
2021/06/30 08:51:01;;;;;;;6.28;3.22;;;18.20;88.60;;;;;;5090188;28;20389;-87
2021/06/30 08:53:28;;;;;;;4.95;3.00;;;18.30;87.50;;;;;;5090137;28;20929;-85
2021/06/30 08:55:54;;;;;;;5.60;3.08;;;18.30;86.40;;;;;;5071732;28;20870;-86
2021/06/30 08:58:20;;;;;;;5.07;3.83;;;18.00;87.50;;;;;;5090015;28;20410;-86
2021/06/30 09:00:46;;;;;;;8.17;3.60;;;17.80;89.80;;;;;;5089646;28;20381;-85
2021/06/30 09:03:15;;;;;;;4.37;3.30;;;17.70;89.90;;;;;;5090216;28;20469;-89
2021/06/30 09:08:20;;;;;;;5.50;3.97;;;17.60;90.10;;;;;;5090074;28;20383;-86
2021/06/30 09:10:45;;;;;;;4.30;3.45;;;17.60;89.50;;;;;;5089064;28;20374;-83
2021/06/30 09:13:21;;;;;;;4.90;3.00;;;17.40;89.90;;;;;;5089742;28;20436;-88
2021/06/30 09:16:00;;;;;;;3.33;2.90;;;17.30;89.20;;;;;;5089940;28;20462;-85
2021/06/30 09:21:18;;;;;;;4.25;2.60;;;17.10;88.30;;;;;;5089959;28;20366;-87
2021/06/30 09:24:05;;;;;;;3.95;2.63;;;17.40;89.60;;;;;;5089549;28;20474;-87
2021/06/30 09:26:35;;;;;;;5.03;2.42;;;17.60;88.00;;;;;;5089931;28;20520;-89
2021/06/30 09:29:08;;;;;;;2.83;2.30;;;18.00;86.60;;;;;;5089414;28;20371;-87
2021/06/30 09:31:35;;;;;;;2.53;2.15;;;18.30;84.70;;;;;;5070713;28;20477;-88
2021/06/30 09:34:01;;;;;;;2.63;2.23;;;18.60;85.40;;;;;;5089899;28;20403;-88
2021/06/30 09:36:33;;;;;;;7.97;2.50;;;18.60;86.60;;;;;;5089222;28;20405;-85
2021/06/30 09:39:09;;;;;;;3.92;2.50;;;18.30;86.60;;;;;;5071442;28;20394;-88
2021/06/30 09:41:36;;;;;;;2.83;2.13;;;18.00;86.80;;;;;;5089586;28;20366;-88
2021/06/30 09:44:07;;;;;;;4.25;2.45;;;17.80;85.80;;;;;;5105357;28;20393;-86
2021/06/30 09:46:35;;;;;;;3.58;2.60;;;17.70;86.00;;;;;;5089558;28;20400;-88
2021/06/30 09:49:06;;;;;;;3.15;2.63;;;17.80;86.80;;;;;;5089181;28;20370;-86
2021/06/30 09:51:32;;;;;;;3.35;2.65;;;17.80;86.60;;;;;;5089752;28;20790;-86
2021/06/30 09:54:15;;;;;;;2.30;1.88;;;18.00;84.90;;;;;;5071665;28;20461;-87
2021/06/30 09:56:54;;;;;;;2.15;1.80;;;17.80;84.60;;;;;;5071395;28;20409;-84
2021/06/30 09:59:24;;;;;;;2.05;1.70;;;17.70;85.10;;;;;;5089431;28;20382;-82
2021/06/30 10:01:54;;;;;;;1.40;1.30;;;17.90;85.10;;;;;;5071416;28;20477;-86
2021/06/30 10:04:26;;;;;;;1.33;1.23;;;18.40;84.00;;;;;;5089548;28;20378;-91
2021/06/30 10:06:56;;;;;;;1.42;1.33;;;18.60;81.50;;;;;;5089407;28;20846;-88
2021/06/30 10:09:21;;;;;;;1.92;1.50;;;18.50;83.10;;;;;;5089185;28;20402;-85
2021/06/30 10:11:56;;;;;;;2.73;1.50;;;19.00;85.00;;;;;;5089466;28;20912;-91
2021/06/30 10:14:22;;;;;;;3.75;1.35;;;18.40;82.70;;;;;;5104796;28;20386;-92
2021/06/30 10:16:50;;;;;;;2.30;1.50;;;18.30;84.90;;;;;;5104837;28;20870;-85
2021/06/30 10:19:17;;;;;;;1.95;1.35;;;18.00;84.20;;;;;;5089225;28;20382;-90
2021/06/30 10:21:43;;;;;;;1.90;1.38;;;18.00;85.80;;;;;;5071186;28;20389;-86
2021/06/30 10:24:08;;;;;;;2.85;1.17;;;18.00;85.40;;;;;;5073382;28;20382;-84
2021/06/30 10:26:34;;;;;;;2.70;1.17;;;18.10;84.30;;;;;;5092778;28;20378;-87
2021/06/30 10:29:02;;;;;;;1.73;1.23;;;18.00;84.40;;;;;;5092859;28;20370;-93
2021/06/30 10:31:36;;;;;;;1.20;1.10;;;18.00;85.20;;;;;;5093019;28;20370;-93
2021/06/30 10:34:07;;;;;;;3.15;1.50;;;17.90;84.20;;;;;;5093160;28;20728;-92
2021/06/30 10:36:54;;;;;;;2.95;1.70;;;17.90;83.70;;;;;;5093098;28;20417;-86
2021/06/30 10:39:41;;;;;;;3.93;1.40;;;18.10;85.40;;;;;;5073979;28;20459;-85
2021/06/30 10:42:38;;;;;;;4.90;1.60;;;18.40;84.30;;;;;;5093150;28;20920;-87
2021/06/30 10:45:15;;;;;;;2.90;1.40;;;18.20;84.80;;;;;;5074500;28;20862;-82
2021/06/30 10:47:47;;;;;;;1.42;1.20;;;18.20;84.40;;;;;;5108297;28;20442;-84
2021/06/30 10:50:37;;;;;;;4.95;1.65;;;18.10;85.80;;;;;;5092664;28;20439;-89
2021/06/30 10:53:09;;;;;;;1.58;1.20;;;18.10;86.10;;;;;;5092446;28;20389;-89
2021/06/30 10:55:36;;;;;;;1.27;1.17;;;18.00;84.60;;;;;;5092673;28;20379;-85
2021/06/30 10:58:11;;;;;;;3.35;1.30;;;17.70;84.70;;;;;;5092164;28;20479;-85
2021/06/30 11:00:38;;;;;;;1.60;1.13;;;17.80;85.20;;;;;;5108026;28;20386;-92
2021/06/30 11:03:25;;;;;;;1.30;1.07;;;17.70;83.20;;;;;;5092447;28;20455;-91
2021/06/30 11:06:07;;;;;;;2.05;1.27;;;17.80;83.00;;;;;;5107870;28;20425;-88
2021/06/30 11:08:54;;;;;;;2.17;1.20;;;17.80;83.60;;;;;;5092384;28;20358;-84
2021/06/30 11:11:25;;;;;;;2.72;1.60;;;17.80;83.70;;;;;;5092242;28;20459;-87
2021/06/30 11:14:02;;;;;;;1.63;1.30;;;18.00;84.60;;;;;;5091759;28;20784;-89
2021/06/30 11:16:50;;;;;;;1.63;1.10;;;17.90;84.40;;;;;;5073914;28;20413;-86
2021/06/30 11:19:15;;;;;;;2.80;1.60;;;17.90;84.00;;;;;;5091609;28;20891;-89
2021/06/30 11:21:55;;;;;;;1.87;1.47;;;17.80;84.50;;;;;;5074116;28;20382;-86
2021/06/30 11:24:33;;;;;;;3.35;1.58;;;17.80;84.60;;;;;;5073264;28;20393;-88
2021/06/30 11:27:24;;;;;;;4.63;2.40;;;17.80;84.40;;;;;;5091734;28;20837;-92
2021/06/30 11:29:58;;;;;;;3.20;1.10;;;17.50;84.70;;;;;;5073204;28;20389;-84
2021/06/30 11:35:10;;;;;;;3.00;1.10;;;17.40;84.30;;;;;;5091786;28;20854;-87
2021/06/30 11:37:41;;;;;;;2.00;1.35;;;17.40;85.20;;;;;;5091349;28;20442;-83
2021/06/30 11:40:14;;;;;;;3.03;1.20;;;17.70;85.80;;;;;;5091302;28;20412;-86
2021/06/30 11:42:46;;;;;;;2.20;1.60;;;17.70;84.00;;;;;;5091595;28;20382;-84
2021/06/30 11:45:25;;;;;;;3.40;1.10;;;17.90;85.40;;;;;;5091329;28;20382;-84
2021/06/30 11:47:53;;;;;;;1.38;1.10;;;18.10;84.50;;;;;;5090431;28;20385;-87
2021/06/30 11:50:29;;;;;;;1.63;1.40;;;18.00;85.10;;;;;;5072469;28;20435;-84
2021/06/30 11:52:58;;;;;;;3.75;1.30;;;18.10;85.10;;;;;;5090570;28;20434;-82
2021/06/30 11:55:26;;;;;;;1.40;1.30;;;17.90;83.50;;;;;;5072989;28;20381;-91
2021/06/30 11:58:01;;;;;;;3.35;1.40;;;17.80;84.40;;;;;;5091614;28;20810;-91
2021/06/30 12:00:28;;;;;;;1.93;1.10;;;17.70;84.50;;;;;;5087941;28;20471;-87
2021/06/30 12:02:56;;;;;;;1.75;1.10;;;17.80;85.50;;;;;;5088553;28;20920;-86
2021/06/30 12:05:23;;;;;;;1.40;1.20;;;18.10;84.40;;;;;;5089770;28;20378;-88
2021/06/30 12:07:53;;;;;;;1.20;1.10;;;18.00;85.20;;;;;;5090697;28;20412;-86
2021/06/30 12:10:19;;;;;;;5.83;2.30;;;17.60;83.60;;;;;;5090932;28;20781;-82
2021/06/30 12:12:46;;;;;;;1.80;1.20;;;17.70;82.80;;;;;;5090841;28;20366;-85
2021/06/30 12:15:12;;;;;;;3.08;1.30;;;17.80;83.10;;;;;;5090731;28;20495;-84
2021/06/30 12:17:47;;;;;;;1.50;1.30;;;17.90;82.70;;;;;;5090286;28;20475;-90
2021/06/30 12:20:14;;;;;;;1.25;1.15;;;17.80;82.80;;;;;;5091086;28;20370;-85
2021/06/30 12:22:40;;;;;;;1.80;1.38;;;17.90;83.10;;;;;;5090856;28;20711;-86
2021/06/30 12:25:07;;;;;;;1.63;1.37;;;18.20;82.30;;;;;;5089874;28;20386;-83
2021/06/30 12:27:39;;;;;;;1.80;1.20;;;17.90;82.10;;;;;;5090646;28;20883;-84
2021/06/30 12:30:08;;;;;;;1.55;1.30;;;17.90;83.00;;;;;;5089676;28;20450;-85
2021/06/30 12:32:36;;;;;;;1.73;1.60;;;18.00;83.00;;;;;;5090519;28;20384;-84
2021/06/30 12:35:05;;;;;;;1.77;1.55;;;17.90;82.30;;;;;;5072308;28;20444;-85
2021/06/30 12:37:31;;;;;;;3.47;1.80;;;17.90;84.10;;;;;;5071732;28;20743;-85
2021/06/30 12:40:03;;;;;;;1.98;1.73;;;17.80;83.90;;;;;;5090300;28;20432;-84
2021/06/30 12:42:50;;;;;;;2.83;1.77;;;17.80;84.20;;;;;;5090182;28;20377;-86
2021/06/30 12:45:23;;;;;;;2.45;2.00;;;17.60;85.70;;;;;;5090269;28;20414;-86
2021/06/30 12:48:01;;;;;;;4.33;2.00;;;17.50;84.30;;;;;;5084934;28;20402;-85
2021/06/30 12:50:36;;;;;;;2.10;1.77;;;17.60;84.80;;;;;;5089783;28;20420;-85
2021/06/30 12:53:05;;;;;;;2.53;1.88;;;17.70;84.00;;;;;;5090387;28;20768;-87
2021/06/30 12:55:52;;;;;;;2.13;1.63;;;17.50;83.90;;;;;;5089700;28;20382;-88
2021/06/30 12:58:17;;;;;;;4.05;1.80;;;17.90;84.40;;;;;;5089832;28;20406;-85
2021/06/30 13:00:59;;;;;;;2.07;1.63;;;17.70;82.50;;;;;;5089910;28;20700;-80
2021/06/30 13:03:26;;;;;;;4.35;2.40;;;17.90;82.70;;;;;;5071586;28;20382;-85
2021/06/30 13:05:52;;;;;;;4.72;1.90;;;17.80;82.40;;;;;;5089847;28;20739;-83
2021/06/30 13:08:34;;;;;;;3.47;2.78;;;17.80;82.90;;;;;;5089619;28;20382;-86
2021/06/30 13:11:22;;;;;;;6.60;4.60;;;17.90;83.00;;;;;;5051948;28;20392;-87
2021/06/30 13:14:23;;;;;;;8.73;4.82;;;18.00;83.40;;;;;;5088274;28;20382;-84
2021/06/30 13:17:01;;;;;;;11.13;7.03;;;18.10;83.60;;;;;;5026355;28;20415;-86
2021/06/30 13:19:32;;;;;;;8.75;6.97;;;17.70;83.20;;;;;;5081483;28;20406;-88
2021/06/30 13:22:00;;;;;;;8.57;6.80;;;17.80;84.40;;;;;;5088153;28;20468;-86
2021/06/30 13:27:34;;;;;;;6.80;5.13;;;18.20;83.90;;;;;;5089482;28;20378;-87
2021/06/30 13:36:02;;;;;;;6.15;4.22;;;17.70;83.20;;;;;;5089527;28;20377;-93
2021/06/30 13:38:35;;;;;;;6.72;5.38;;;17.60;84.00;;;;;;5071683;28;20874;-88
2021/06/30 13:41:04;;;;;;;7.30;4.97;;;17.30;84.20;;;;;;5089560;28;20401;-84
2021/06/30 13:43:31;;;;;;;7.68;5.40;;;17.10;83.60;;;;;;5087485;28;20471;-87
2021/06/30 13:45:59;;;;;;;7.07;4.80;;;17.10;84.70;;;;;;5088550;28;20386;-86
2021/06/30 13:48:26;;;;;;;8.90;5.07;;;17.00;84.80;;;;;;5089390;28;20381;-85
2021/06/30 13:50:55;;;;;;;5.03;3.80;;;17.00;85.50;;;;;;5089385;28;20472;-87
2021/06/30 13:53:23;;;;;;;6.68;3.67;;;17.30;84.40;;;;;;5088091;28;20397;-85
2021/06/30 13:55:49;;;;;;;5.67;3.07;;;17.30;84.50;;;;;;5090567;28;20931;-87
2021/06/30 13:58:15;;;;;;;5.55;2.70;;;17.20;84.00;;;;;;5089965;28;20463;-85
2021/06/30 14:00:41;;;;;;;6.88;3.08;;;17.30;83.90;;;;;;5091148;28;20905;-88
2021/06/30 14:03:08;;;;;;;6.35;3.72;;;17.30;83.70;;;;;;5092179;28;20907;-83
2021/06/30 14:05:34;;;;;;;11.45;4.10;;;17.20;83.80;;;;;;5093192;28;20413;-86
2021/06/30 14:08:01;;;;;;;4.65;3.58;;;17.10;85.50;;;;;;5092995;28;20382;-86
2021/06/30 14:10:27;;;;;;;7.15;4.85;;;17.20;85.10;;;;;;5092526;28;20893;-86
2021/06/30 14:12:57;;;;;;;7.05;3.88;;;17.20;84.60;;;;;;5093212;28;20926;-87
2021/06/30 14:15:23;;;;;;;6.05;3.55;;;17.30;84.60;;;;;;5093000;28;20420;-87
2021/06/30 14:17:49;;;;;;;5.13;3.60;;;17.30;85.30;;;;;;5091463;28;20382;-87
2021/06/30 14:20:15;;;;;;;5.43;3.58;;;17.40;85.10;;;;;;5092483;28;20370;-85
2021/06/30 14:22:43;;;;;;;6.73;3.53;;;17.30;85.10;;;;;;5092801;28;20388;-88
2021/06/30 14:25:11;;;;;;;5.93;3.33;;;17.10;85.30;;;;;;5091181;28;20427;-89
2021/06/30 14:27:37;;;;;;;6.60;3.83;;;17.40;85.80;;;;;;5074071;28;20405;-87
2021/06/30 14:30:07;;;;;;;9.43;4.30;;;17.40;85.30;;;;;;5092382;28;20381;-87
2021/06/30 14:32:33;;;;;;;7.03;4.90;;;17.30;84.60;;;;;;5092652;28;20473;-88
2021/06/30 14:34:59;;;;;;;10.40;5.88;;;17.10;85.80;;;;;;5074477;28;20540;-88
2021/06/30 14:37:25;;;;;;;8.15;5.68;;;16.90;85.60;;;;;;5092321;28;20451;-87
2021/06/30 14:39:52;;;;;;;9.13;6.57;;;16.90;85.90;;;;;;5073933;28;20473;-84
2021/06/30 14:42:20;;;;;;;7.57;5.50;;;17.00;86.20;;;;;;5091357;28;20856;-88
2021/06/30 14:44:46;;;;;;;8.88;6.45;;;17.00;86.10;;;;;;5087660;28;20383;-86
2021/06/30 14:47:13;;;;;;;11.32;6.30;;;17.10;86.40;;;;;;5092176;28;20904;-88
2021/06/30 14:49:39;;;;;;;10.23;6.43;;;17.30;86.20;;;;;;5082250;28;20854;-88
2021/06/30 14:52:05;;;;;;;8.85;5.60;;;17.30;84.10;;;;;;5073518;28;20458;-89
2021/06/30 14:54:31;;;;;;;10.38;5.43;;;17.10;85.10;;;;;;5073820;28;20842;-88
2021/06/30 14:56:56;;;;;;;9.05;5.80;;;17.40;83.70;;;;;;5091446;28;20378;-89
2021/06/30 14:59:22;;;;;;;8.80;5.50;;;17.40;84.80;;;;;;5101032;27;20378;-89
2021/06/30 15:01:48;;;;;;;7.97;4.87;;;17.60;83.80;;;;;;5092010;28;20388;-87
2021/06/30 15:04:13;;;;;;;8.13;5.15;;;17.60;82.60;;;;;;5092130;28;20382;-87
2021/06/30 15:06:39;;;;;;;7.82;5.55;;;17.60;83.40;;;;;;5091670;28;20417;-87
2021/06/30 15:09:05;;;;;;;14.60;7.60;;;17.80;84.00;;;;;;5091027;28;20423;-89
2021/06/30 15:11:32;;;;;;;12.82;7.93;;;17.70;81.50;;;;;;5091882;28;20405;-86
2021/06/30 15:13:59;;;;;;;14.43;8.50;;;17.60;82.40;;;;;;5092001;28;20445;-86
2021/06/30 15:16:25;;;;;;;15.98;8.75;;;17.70;82.20;;;;;;5090637;28;20434;-86
2021/06/30 15:18:50;;;;;;;12.87;8.00;;;17.50;83.00;;;;;;5091592;28;20378;-87
2021/06/30 15:21:16;;;;;;;11.60;7.67;;;17.70;82.10;;;;;;5091874;28;20374;-90
2021/06/30 15:23:41;;;;;;;9.35;6.80;;;17.60;82.80;;;;;;5089887;28;20378;-86
2021/06/30 15:26:07;;;;;;;10.73;6.67;;;17.40;83.70;;;;;;5091948;28;20443;-84
2021/06/30 15:28:33;;;;;;;13.10;6.60;;;17.40;83.00;;;;;;5090663;28;20480;-86
2021/06/30 15:30:58;;;;;;;9.13;6.27;;;17.40;83.40;;;;;;5091380;28;20382;-86
2021/06/30 15:33:24;;;;;;;9.93;6.60;;;17.20;83.80;;;;;;5090679;28;20367;-85
2021/06/30 15:35:49;;;;;;;10.23;7.00;;;17.20;84.10;;;;;;5090390;28;20388;-88
2021/06/30 15:38:15;;;;;;;16.60;7.37;;;17.20;84.40;;;;;;5090451;28;20394;-87
2021/06/30 15:40:41;;;;;;;12.80;6.93;;;17.30;84.80;;;;;;5090640;28;20374;-93
2021/06/30 15:43:06;;;;;;;9.30;5.47;;;17.20;84.60;;;;;;5073128;28;20885;-86
2021/06/30 15:45:32;;;;;;;9.60;5.13;;;17.00;83.50;;;;;;5090250;28;20378;-88
2021/06/30 15:47:58;;;;;;;6.77;4.67;;;16.90;84.80;;;;;;5090468;28;20402;-92
2021/06/30 15:50:24;;;;;;;6.80;4.40;;;16.90;84.40;;;;;;5090371;28;20432;-90
2021/06/30 15:52:49;;;;;;;10.02;6.22;;;17.00;85.10;;;;;;5091364;28;20418;-90
2021/06/30 15:55:18;;;;;;;9.45;5.55;;;16.90;85.50;;;;;;5089834;28;20469;-88
2021/06/30 15:57:44;;;;;;;10.55;6.15;;;16.90;86.30;;;;;;5081197;28;20449;-87
2021/06/30 16:00:13;;;;;;;10.23;6.20;;;16.90;85.50;;;;;;5090387;28;20397;-87
2021/06/30 16:02:40;;;;;;;10.35;6.32;;;17.10;85.70;;;;;;5101458;27;20881;-87
2021/06/30 16:05:06;;;;;;;10.30;6.30;;;17.10;85.60;;;;;;5090255;28;20837;-90
2021/06/30 16:07:32;;;;;;;11.75;6.07;;;17.20;85.20;;;;;;5072454;28;20405;-86
2021/06/30 16:09:58;;;;;;;10.10;6.70;;;17.20;85.40;;;;;;5121550;27;20378;-84
2021/06/30 16:12:23;;;;;;;12.20;6.83;;;17.00;85.60;;;;;;5091170;28;20378;-87
2021/06/30 16:14:50;;;;;;;11.43;6.73;;;17.10;85.40;;;;;;5072594;28;20378;-86
2021/06/30 16:17:16;;;;;;;11.85;7.53;;;17.20;85.50;;;;;;5089674;28;20471;-84
2021/06/30 16:19:42;;;;;;;10.45;6.95;;;17.30;85.80;;;;;;5090330;28;20432;-85
2021/06/30 16:22:07;;;;;;;9.73;7.05;;;17.00;85.20;;;;;;5089623;28;20401;-86
2021/06/30 16:24:33;;;;;;;14.10;7.13;;;17.10;85.60;;;;;;5091472;28;20374;-85
2021/06/30 16:26:58;;;;;;;11.53;5.90;;;17.10;85.90;;;;;;5090986;28;20419;-84
2021/06/30 16:29:24;;;;;;;9.68;6.47;;;17.30;85.80;;;;;;5090981;28;20397;-82
2021/06/30 16:31:51;;;;;;;11.17;6.60;;;17.20;86.30;;;;;;5090968;28;20753;-86
2021/06/30 16:34:17;;;;;;;18.33;6.50;;;17.10;86.20;;;;;;5090938;28;20463;-85
2021/06/30 16:36:43;;;;;;;11.50;6.43;;;17.30;86.00;;;;;;5091121;28;20432;-84
2021/06/30 16:39:11;;;;;;;9.47;5.77;;;17.20;85.30;;;;;;5090620;28;20377;-86
2021/06/30 16:41:38;;;;;;;8.00;5.47;;;17.10;85.60;;;;;;5091217;28;20370;-86
2021/06/30 16:44:04;;;;;;;12.80;5.30;;;17.10;84.90;;;;;;5072677;28;20378;-84
2021/06/30 16:46:30;;;;;;;7.78;5.22;;;17.10;85.60;;;;;;5091132;28;20405;-85
2021/06/30 16:48:56;;;;;;;9.20;6.00;;;17.10;84.60;;;;;;5090181;28;20846;-83
2021/06/30 16:51:22;;;;;;;8.43;5.07;;;17.10;85.20;;;;;;5090955;28;20384;-84
2021/06/30 16:53:47;;;;;;;6.47;4.77;;;17.10;84.90;;;;;;5088774;28;20397;-85
2021/06/30 16:56:13;;;;;;;9.50;4.93;;;17.00;85.30;;;;;;5091048;28;20365;-83
2021/06/30 16:58:39;;;;;;;6.82;4.20;;;16.80;86.00;;;;;;5090396;28;20420;-85
2021/06/30 17:01:04;;;;;;;8.68;4.45;;;16.50;86.80;;;;;;5090894;28;20718;-89
2021/06/30 17:03:30;;;;;;;6.80;4.37;;;16.40;87.80;;;;;;5091114;28;20384;-82
2021/06/30 17:05:55;;;;;;;7.50;4.70;;;16.40;88.60;;;;;;5090100;28;20381;-83
2021/06/30 17:08:21;;;;;;;10.07;4.97;;;16.30;89.10;;;;;;5090410;28;20463;-84
2021/06/30 17:10:47;;;;;;;11.68;5.97;;;16.30;89.60;;;;;;5090125;28;20418;-81
2021/06/30 17:13:13;;;;;;;10.77;7.57;;;16.30;89.50;;;;;;5090692;28;20490;-80
2021/06/30 17:15:39;;;;;;;11.43;7.90;;;16.00;90.10;;;;;;5090237;28;20491;-79
2021/06/30 17:18:04;;;;;;;14.30;7.83;;;16.00;90.70;;;;;;5090518;28;20378;-80
2021/06/30 17:20:31;;;;;;;13.87;7.90;;;16.30;90.00;;;;;;5071413;28;20428;-80
2021/06/30 17:22:56;;;;;;;14.32;7.97;;;16.10;90.40;;;;;;5091025;28;20405;-79
2021/06/30 17:25:22;;;;;;;9.90;7.13;;;16.30;90.40;;;;;;5081227;28;20468;-81
2021/06/30 17:27:48;;;;;;;13.75;8.50;;;16.60;89.40;;;;;;5090114;28;20405;-81
2021/06/30 17:30:14;;;;;;;15.45;9.02;;;16.40;89.50;;;;;;5090084;28;20842;-81
2021/06/30 17:32:51;;;;;;;15.15;10.07;;;16.50;89.80;;;;;;5090263;28;20374;-81
2021/06/30 17:35:17;;;;;;;16.63;9.67;;;16.30;89.50;;;;;;5090577;28;20781;-80
2021/06/30 17:37:43;;;;;;;16.37;9.60;;;16.30;90.00;;;;;;5090173;28;20396;-82
2021/06/30 17:40:10;;;;;;;15.70;8.35;;;16.40;90.10;;;;;;5090053;28;20418;-80
2021/06/30 17:42:36;;;;;;;7.88;5.85;;;16.40;89.70;;;;;;5090211;28;20443;-82
2021/06/30 17:45:02;;;;;;;10.15;5.97;;;16.30;88.70;;;;;;5089117;28;20382;-80
2021/06/30 17:47:28;;;;;;;8.80;5.70;;;16.00;90.60;;;;;;5089865;28;20409;-81
2021/06/30 17:49:53;;;;;;;8.27;5.40;;;16.20;89.20;;;;;;5089962;28;20374;-79
2021/06/30 17:52:19;;;;;;;8.53;5.23;;;16.20;90.20;;;;;;5082322;28;20382;-79
2021/06/30 17:54:46;;;;;;;9.38;6.43;;;16.50;89.30;;;;;;5089314;28;20382;-82
2021/06/30 17:57:18;;;;;;;8.02;5.90;;;16.30;89.50;;;;;;5089766;28;20768;-78
2021/06/30 17:59:43;;;;;;;9.38;6.32;;;16.40;89.70;;;;;;5089784;28;20374;-79
2021/06/30 18:02:09;;;;;;;10.00;6.60;;;16.10;90.40;;;;;;5082393;28;20688;-79
2021/06/30 18:04:34;;;;;;;10.82;7.15;;;16.30;90.00;;;;;;5089686;28;20771;-80
2021/06/30 18:07:00;;;;;;;12.20;7.67;;;16.30;90.10;;;;;;5089946;28;20462;-78
2021/06/30 18:09:26;;;;;;;10.88;7.15;;;16.10;90.80;;;;;;5088856;28;20781;-79
2021/06/30 18:11:52;;;;;;;7.95;5.55;;;15.80;92.10;;;;;;5089946;28;20378;-80
2021/06/30 18:14:17;;;;;;;7.30;5.03;;;15.80;92.30;;;;;;5088753;28;20385;-80
2021/06/30 18:16:43;;;;;;;7.03;4.72;;;15.60;92.90;;;;;;5088400;28;20390;-80
2021/06/30 18:19:08;;;;;;;9.43;4.40;;;15.50;93.50;;;;;;5088865;28;20378;-81
2021/06/30 18:21:34;;;;;;;8.27;4.17;;;15.60;93.90;;;;;;5088791;28;20722;-82
2021/06/30 18:24:00;;;;;;;6.35;4.00;;;15.70;92.80;;;;;;5089431;28;20370;-85
2021/06/30 18:26:25;;;;;;;6.63;4.30;;;15.80;92.70;;;;;;5089272;28;21130;-88
2021/06/30 18:28:52;;;;;;;9.45;5.57;;;15.50;93.10;;;;;;5088972;28;20464;-86
2021/06/30 18:31:18;;;;;;;9.55;5.47;;;15.40;93.70;;;;;;5088620;28;20426;-86
2021/06/30 18:33:44;;;;;;;9.43;5.53;;;15.60;93.40;;;;;;5089754;28;20854;-84
2021/06/30 18:36:10;;;;;;;13.95;8.13;;;15.70;93.50;;;;;;5089445;28;20734;-85
2021/06/30 18:38:36;;;;;;;14.68;7.68;;;15.50;93.40;;;;;;5089421;28;20427;-84
2021/06/30 18:41:08;;;;;;;18.17;9.15;;;15.60;93.60;;;;;;5088946;28;20425;-86
2021/06/30 18:43:35;;;;;;;15.60;7.85;;;15.60;92.70;;;;;;5088666;28;20400;-84
2021/06/30 18:46:00;;;;;;;15.00;8.18;;;15.70;93.10;;;;;;5091610;28;20451;-84